01:54
Airports
History
Links
Donate
Help keep this website running!
PayPal
Bitcoin
This page is community maintained. The information is intended for PC simulator navigation or reference.
Always use approved charts for navigation.
SBBU
BAURU
BAURU (SBBU)
Bauru, São Paulo, Brazil (17012191)
(U)
Lat/Lng:22° 20' 42.15" S / 49° 3' 13.69" W
-22.345041 / -49.053802
Elevation:2025'ft / 617mMSL
ID / ICAO:SBBU
Runways:1
Longest:(14-32) 1,496.7m / 4,910ft Asphalt
Distance To
Airport ID:
Airport Radio Frequencies
ATIS: 127.87
Tower: 121.3
Approach: 121.3
METARUpdated 08-17-17 00:00 GMT
Altimeter: 30.09
Visibility: 6.2 statute miles
Wind: 7 knots (020°)
Temp: 17°c 63°f
Humidity: 100.0%

METAR: SBBU 170000Z 02007KT 9999 SCT020 OVC080 17/17 Q1019

(Powered by phpweather)
Runway 14 / 32
Dimensions:1496.7 x 35.1m 4910' x 115'ft
Surface:Asphalt
Edge Lights:Low intensity
Runway 14 [A]Runway 32 [B]
Heading:122°TH 302°TH
Lat:
Lng:
22° 20' 29.01"S
49° 3' 35.78"W
22° 20' 55.28"S
49° 2' 51.59"W
User Notes and Comments
Google Map
Nearby Airports
4 Fazenda Shangri-la 10.7 NM
SDSH WNW 288°
(U) Bauru - Arealva 13.0 NM
SBAE N 355°
4 Pederneiras 18.2 NM
SSOI E 81°
4 Fazenda Bonanza 19.9 NM
SJEJ NW 311°
(C) Lencois Paulista 24.0 NM
SDLP SE 132°
4 Fazenda Sao Lucas 26.3 NM
SDKC W 276°
4 Fazenda Guandu 28.1 NM
SDZV WSW 251°
VFR Chart
Flight Planning at SkyVector.com